createdAt,value
2018-07-30T00:02:01.387Z,48.80
2018-07-30T00:04:29.072Z,49.60
2018-07-30T00:06:56.725Z,49.50
2018-07-30T00:12:03.068Z,49.30
2018-07-30T00:14:30.687Z,49.50
2018-07-30T00:16:58.280Z,49.50
2018-07-30T00:21:54.221Z,49.50
2018-07-30T00:24:22.401Z,49.50
2018-07-30T00:26:50.106Z,49.30
2018-07-30T00:29:17.609Z,49.20
2018-07-30T00:31:45.236Z,49.60
2018-07-30T00:34:12.852Z,48.80
2018-07-30T00:36:40.630Z,49.00
2018-07-30T00:41:36.947Z,49.30
2018-07-30T00:44:04.764Z,49.50
2018-07-30T00:46:32.405Z,50.10
2018-07-30T00:49:00.055Z,50.20
2018-07-30T00:51:28.924Z,49.30
2018-07-30T00:53:56.517Z,50.00
2018-07-30T00:56:24.336Z,50.00
2018-07-30T00:58:51.912Z,49.40
2018-07-30T01:01:20.033Z,49.90
2018-07-30T01:03:47.573Z,49.60
2018-07-30T01:06:15.098Z,48.70
2018-07-30T01:08:43.236Z,50.40
2018-07-30T01:11:10.792Z,50.40
2018-07-30T01:13:38.859Z,51.30
2018-07-30T01:16:06.936Z,51.80
2018-07-30T01:18:34.488Z,51.30
2018-07-30T01:21:02.066Z,51.10
2018-07-30T01:23:29.556Z,50.80
2018-07-30T01:26:02.147Z,51.10
2018-07-30T01:28:29.793Z,51.20
2018-07-30T01:30:57.965Z,51.20
2018-07-30T01:33:25.450Z,50.90
2018-07-30T01:35:53.179Z,52.40
2018-07-30T01:38:21.687Z,51.70
2018-07-30T01:40:49.392Z,51.80
2018-07-30T01:43:17.000Z,51.70
2018-07-30T01:45:45.569Z,51.20
2018-07-30T01:48:13.148Z,51.60
2018-07-30T01:50:41.196Z,52.80
2018-07-30T01:55:36.886Z,52.20
2018-07-30T01:58:04.628Z,52.10
2018-07-30T02:00:32.342Z,52.60
2018-07-30T02:03:00.096Z,51.30
2018-07-30T02:05:28.606Z,52.30
2018-07-30T02:07:56.187Z,52.70
2018-07-30T02:10:23.770Z,52.60
2018-07-30T02:12:51.318Z,52.50
2018-07-30T02:15:18.879Z,53.20
2018-07-30T02:17:46.531Z,53.50
2018-07-30T02:20:14.560Z,53.30
2018-07-30T02:25:09.906Z,52.80
2018-07-30T02:27:38.319Z,53.40
2018-07-30T02:30:07.143Z,53.50
2018-07-30T02:32:34.672Z,53.50
2018-07-30T02:35:02.201Z,53.40
2018-07-30T02:37:29.760Z,53.30
2018-07-30T02:39:57.832Z,53.80
2018-07-30T02:42:25.510Z,53.40
2018-07-30T02:44:53.056Z,53.50
2018-07-30T02:47:20.581Z,52.70
2018-07-30T02:49:48.198Z,53.80
2018-07-30T02:53:40.723Z,54.70
2018-07-30T02:56:08.318Z,53.90
2018-07-30T02:58:35.857Z,54.50
2018-07-30T03:01:03.513Z,54.80
2018-07-30T03:03:31.079Z,55.00
2018-07-30T03:05:58.599Z,55.20
2018-07-30T03:10:54.249Z,55.70
2018-07-30T03:18:17.127Z,55.40
2018-07-30T03:20:44.803Z,55.60
2018-07-30T03:23:13.151Z,56.00
2018-07-30T03:25:40.732Z,56.00
2018-07-30T03:33:03.556Z,55.30
2018-07-30T03:35:32.060Z,55.60
2018-07-30T03:37:59.849Z,55.70
2018-07-30T03:40:27.413Z,56.30
2018-07-30T03:42:55.026Z,55.40
2018-07-30T03:45:22.672Z,55.00
2018-07-30T03:47:50.283Z,55.20
2018-07-30T03:50:17.848Z,55.10
2018-07-30T03:57:42.163Z,55.20
2018-07-30T04:00:11.463Z,55.60
2018-07-30T04:02:39.350Z,55.80
2018-07-30T04:07:35.089Z,56.30
2018-07-30T04:12:30.439Z,56.20
2018-07-30T04:14:57.955Z,56.20
2018-07-30T04:17:25.477Z,55.80
2018-07-30T04:19:53.658Z,56.00
2018-07-30T04:22:21.220Z,56.20
2018-07-30T04:24:49.292Z,56.20
2018-07-30T04:29:44.290Z,55.40
2018-07-30T04:32:11.858Z,54.80
2018-07-30T04:34:39.362Z,55.40
2018-07-30T04:37:06.944Z,55.20
2018-07-30T04:39:34.641Z,56.30
2018-07-30T04:42:02.804Z,55.70
2018-07-30T04:44:30.496Z,56.20
2018-07-30T04:46:58.082Z,56.20
2018-07-30T04:49:25.749Z,55.90
2018-07-30T04:51:53.307Z,56.00
2018-07-30T04:54:20.836Z,54.80
2018-07-30T04:56:48.890Z,54.40
2018-07-30T04:59:16.594Z,54.40
2018-07-30T05:01:44.067Z,54.90
2018-07-30T05:04:11.699Z,55.10
2018-07-30T05:06:39.286Z,55.20
2018-07-30T05:09:08.206Z,54.90
2018-07-30T05:11:35.931Z,54.70
2018-07-30T05:14:03.647Z,54.60
2018-07-30T05:16:31.175Z,54.30
2018-07-30T05:21:26.348Z,54.50
2018-07-30T05:23:54.158Z,53.60
2018-07-30T05:26:21.726Z,54.20
2018-07-30T05:28:49.308Z,54.80
2018-07-30T05:31:16.795Z,53.80
2018-07-30T05:33:44.827Z,53.80
2018-07-30T05:36:12.421Z,53.30
2018-07-30T05:38:40.023Z,52.80
2018-07-30T05:41:08.194Z,52.70
2018-07-30T05:43:35.704Z,52.40
2018-07-30T05:46:03.423Z,52.00
2018-07-30T05:48:30.938Z,52.00
2018-07-30T05:50:58.572Z,51.50
2018-07-30T05:53:26.856Z,50.70
2018-07-30T05:55:54.475Z,49.70
2018-07-30T05:58:22.175Z,50.90
2018-07-30T06:00:49.815Z,51.90
2018-07-30T06:03:17.305Z,49.90
2018-07-30T06:05:44.813Z,51.20
2018-07-30T06:08:12.400Z,50.00
2018-07-30T06:10:40.461Z,50.50
2018-07-30T06:13:07.932Z,49.70
2018-07-30T06:15:35.476Z,50.20
2018-07-30T06:18:03.038Z,48.10
2018-07-30T06:20:31.211Z,48.50
2018-07-30T06:22:59.119Z,48.50
2018-07-30T06:25:26.738Z,46.50
2018-07-30T06:27:54.259Z,47.30
2018-07-30T06:30:22.367Z,48.80
2018-07-30T06:32:49.880Z,48.30
2018-07-30T06:43:40.892Z,47.40
2018-07-30T06:51:03.273Z,46.20
2018-07-30T06:53:30.862Z,46.80
2018-07-30T06:56:00.001Z,47.40
2018-07-30T06:58:27.571Z,46.60
2018-07-30T07:00:55.223Z,46.00
2018-07-30T07:03:22.920Z,47.50
2018-07-30T07:05:50.371Z,46.00
2018-07-30T07:08:17.941Z,45.80
2018-07-30T07:10:45.687Z,45.60
2018-07-30T07:13:14.114Z,45.70
2018-07-30T07:15:41.585Z,44.90
2018-07-30T07:18:09.718Z,44.80
2018-07-30T07:23:05.276Z,43.70
2018-07-30T07:27:19.168Z,43.90
2018-07-30T07:29:47.302Z,43.30
2018-07-30T07:32:15.911Z,44.00
2018-07-30T07:34:44.632Z,42.10
2018-07-30T07:39:39.569Z,41.90
2018-07-30T07:42:07.092Z,42.50
2018-07-30T07:44:34.859Z,42.70
2018-07-30T07:47:02.512Z,41.50
2018-07-30T07:49:30.038Z,42.20
2018-07-30T07:51:57.695Z,40.90
2018-07-30T07:54:25.452Z,41.80
2018-07-30T08:06:44.064Z,38.60
2018-07-30T08:09:12.516Z,39.70
2018-07-30T08:11:40.367Z,38.50
2018-07-30T08:16:38.363Z,38.00
2018-07-30T08:19:09.093Z,38.40
2018-07-30T08:29:02.460Z,36.80
2018-07-30T08:31:30.481Z,37.00
2018-07-30T08:33:58.649Z,36.90
2018-07-30T08:36:26.385Z,37.00
2018-07-30T08:38:54.230Z,36.30
2018-07-30T08:41:21.909Z,35.90
2018-07-30T08:43:49.701Z,36.20
2018-07-30T08:46:17.288Z,36.20
2018-07-30T08:48:45.140Z,35.80
2018-07-30T08:51:13.014Z,34.70
2018-07-30T08:53:42.239Z,35.10
2018-07-30T08:56:10.116Z,35.90
2018-07-30T09:01:05.947Z,34.20
2018-07-30T09:03:35.394Z,34.10
2018-07-30T09:06:03.443Z,34.70
2018-07-30T09:08:31.136Z,34.00
2018-07-30T09:10:59.276Z,33.20
2018-07-30T09:13:26.884Z,32.80
2018-07-30T09:15:54.377Z,33.80
2018-07-30T09:18:22.111Z,31.30
2018-07-30T09:20:49.850Z,33.10
2018-07-30T09:28:12.720Z,31.00
2018-07-30T09:35:36.067Z,30.00
2018-07-30T09:38:04.267Z,30.60
2018-07-30T09:40:31.813Z,31.40
2018-07-30T09:42:59.340Z,30.90
2018-07-30T09:45:27.071Z,29.90
2018-07-30T09:50:22.146Z,29.90
2018-07-30T09:52:50.141Z,30.50
2018-07-30T09:55:18.432Z,29.10
2018-07-30T10:00:19.532Z,29.40
2018-07-30T10:02:47.178Z,29.00
2018-07-30T10:05:14.894Z,29.10
2018-07-30T10:07:43.524Z,27.80
2018-07-30T10:12:39.128Z,27.80
2018-07-30T10:17:34.287Z,28.30
2018-07-30T10:20:02.242Z,27.70
2018-07-30T10:22:29.994Z,28.00
2018-07-30T10:27:26.468Z,28.10
2018-07-30T10:29:56.471Z,26.80
2018-07-30T10:32:29.444Z,27.30
2018-07-30T10:34:58.796Z,27.80
2018-07-30T10:37:28.224Z,27.80
2018-07-30T10:39:55.918Z,27.40
2018-07-30T10:42:23.706Z,27.90
2018-07-30T10:44:52.724Z,27.30
2018-07-30T10:47:24.293Z,27.70
2018-07-30T10:49:54.273Z,28.40
2018-07-30T10:52:22.386Z,27.10
2018-07-30T10:57:18.100Z,27.00
2018-07-30T10:59:45.694Z,26.60
2018-07-30T11:02:13.297Z,25.90
2018-07-30T11:04:41.832Z,26.30
2018-07-30T11:07:10.354Z,26.50
2018-07-30T11:12:06.041Z,26.60
2018-07-30T11:14:33.830Z,27.20
2018-07-30T11:17:01.922Z,26.10
2018-07-30T11:19:30.535Z,26.80
2018-07-30T11:21:58.879Z,25.00
2018-07-30T11:24:26.734Z,25.20
2018-07-30T11:26:54.269Z,25.10
2018-07-30T11:29:21.761Z,26.10
2018-07-30T11:31:49.966Z,26.60
2018-07-30T11:34:17.534Z,26.60
2018-07-30T11:39:13.114Z,26.10
2018-07-30T11:41:41.048Z,25.80
2018-07-30T11:44:11.894Z,25.20
2018-07-30T11:46:40.408Z,26.80
2018-07-30T11:49:08.087Z,26.80
2018-07-30T11:54:04.096Z,28.60
2018-07-30T11:56:32.442Z,28.20
2018-07-30T11:59:00.026Z,28.20
2018-07-30T12:01:28.518Z,27.80
2018-07-30T12:08:53.628Z,27.30
2018-07-30T12:11:21.185Z,26.70
2018-07-30T12:13:50.094Z,27.40
2018-07-30T12:16:17.768Z,27.50
2018-07-30T12:18:46.658Z,28.70
2018-07-30T12:21:16.125Z,29.20
2018-07-30T12:23:46.365Z,29.80
2018-07-30T12:26:14.773Z,29.30
2018-07-30T12:28:43.567Z,28.90
2018-07-30T12:31:11.383Z,30.40
2018-07-30T12:33:42.177Z,29.60
2018-07-30T12:36:11.893Z,29.50
2018-07-30T12:38:41.961Z,29.50
2018-07-30T12:43:41.941Z,28.80
2018-07-30T12:46:11.772Z,30.00
2018-07-30T12:51:10.669Z,28.80
2018-07-30T12:56:09.980Z,28.40
2018-07-30T12:58:39.568Z,28.10
2018-07-30T13:01:09.084Z,27.40
2018-07-30T13:03:36.717Z,27.40
2018-07-30T13:06:04.276Z,27.80
2018-07-30T13:08:31.771Z,27.30
2018-07-30T13:10:59.450Z,27.80
2018-07-30T13:13:27.092Z,28.30
2018-07-30T13:15:54.641Z,27.70
2018-07-30T13:18:22.278Z,27.00
2018-07-30T13:20:50.166Z,26.90
2018-07-30T13:23:17.826Z,27.80
2018-07-30T13:25:45.525Z,26.90
2018-07-30T13:28:13.118Z,26.70
2018-07-30T13:30:40.684Z,27.00
2018-07-30T13:33:08.204Z,27.00
2018-07-30T13:35:35.851Z,27.10
2018-07-30T13:38:03.481Z,26.30
2018-07-30T13:40:31.229Z,26.10
2018-07-30T13:42:58.880Z,26.80
2018-07-30T13:45:26.429Z,26.90
2018-07-30T13:47:54.233Z,27.40
2018-07-30T13:50:22.294Z,28.20
2018-07-30T14:00:12.740Z,27.30
2018-07-30T14:02:40.948Z,28.00
2018-07-30T14:07:36.855Z,28.20
2018-07-30T14:10:05.909Z,28.70
2018-07-30T14:15:01.013Z,28.10
2018-07-30T14:17:29.083Z,28.20
2018-07-30T14:19:56.682Z,28.90
2018-07-30T14:22:25.090Z,30.80
2018-07-30T14:24:52.733Z,28.60
2018-07-30T14:27:20.358Z,28.90
2018-07-30T14:29:47.961Z,30.20
2018-07-30T14:32:15.572Z,29.50
2018-07-30T14:34:43.162Z,29.90
2018-07-30T14:37:10.738Z,28.70
2018-07-30T14:39:38.667Z,29.50
2018-07-30T14:42:06.315Z,29.30
2018-07-30T14:44:34.024Z,28.50
2018-07-30T14:47:02.234Z,30.50
2018-07-30T14:49:30.544Z,28.40
2018-07-30T14:51:58.156Z,29.40
2018-07-30T14:54:25.673Z,28.70
2018-07-30T14:56:53.300Z,28.70
2018-07-30T14:59:21.012Z,29.70
2018-07-30T15:04:15.948Z,29.10
2018-07-30T15:06:43.461Z,29.90
2018-07-30T15:09:12.671Z,28.90
2018-07-30T15:11:41.560Z,28.80
2018-07-30T15:14:09.289Z,29.30
2018-07-30T15:16:37.504Z,29.70
2018-07-30T15:19:06.505Z,29.10
2018-07-30T15:21:34.514Z,29.20
2018-07-30T15:24:02.217Z,29.20
2018-07-30T15:26:30.004Z,29.70
2018-07-30T15:28:58.107Z,30.80
2018-07-30T15:31:26.429Z,32.60
2018-07-30T15:36:21.553Z,29.00
2018-07-30T15:38:50.536Z,30.60
2018-07-30T15:41:18.113Z,32.20
2018-07-30T15:43:45.608Z,29.80
2018-07-30T15:46:13.431Z,32.50
2018-07-30T15:48:41.205Z,30.60
2018-07-30T15:51:09.217Z,29.50
2018-07-30T15:53:37.120Z,31.50
2018-07-30T15:56:04.825Z,31.70
2018-07-30T15:58:32.439Z,31.20
2018-07-30T16:03:33.861Z,30.30
2018-07-30T16:06:01.531Z,30.90
2018-07-30T16:08:29.958Z,31.40
2018-07-30T16:10:58.469Z,30.10
2018-07-30T16:13:26.027Z,29.60
2018-07-30T16:15:55.053Z,30.90
2018-07-30T16:18:23.210Z,29.80
2018-07-30T16:20:50.865Z,30.10
2018-07-30T16:23:19.382Z,29.00
2018-07-30T16:28:14.492Z,29.60
2018-07-30T16:30:42.722Z,29.00
2018-07-30T16:33:10.369Z,29.00
2018-07-30T16:35:37.999Z,29.80
2018-07-30T16:38:05.740Z,32.30
2018-07-30T16:40:33.409Z,31.50
2018-07-30T16:43:01.206Z,33.50
2018-07-30T16:45:28.994Z,33.90
2018-07-30T16:47:56.721Z,32.30
2018-07-30T16:50:24.320Z,36.20
2018-07-30T16:57:55.155Z,36.50
2018-07-30T17:02:50.287Z,37.00
2018-07-30T17:05:18.532Z,38.10
2018-07-30T17:07:46.391Z,37.50
2018-07-30T17:10:14.481Z,37.70
2018-07-30T17:15:10.008Z,38.60
2018-07-30T17:17:39.342Z,38.10
2018-07-30T17:20:10.549Z,36.30
2018-07-30T17:22:39.435Z,37.50
2018-07-30T17:25:07.243Z,37.60
2018-07-30T17:27:35.748Z,37.20
2018-07-30T17:30:04.199Z,39.50
2018-07-30T17:32:31.914Z,37.80
2018-07-30T17:35:00.644Z,37.60
2018-07-30T17:37:30.144Z,37.90
2018-07-30T17:39:58.208Z,38.20
2018-07-30T17:42:27.221Z,38.60
2018-07-30T17:44:55.379Z,37.70
2018-07-30T17:47:24.987Z,38.00
2018-07-30T17:49:52.656Z,38.20
2018-07-30T17:52:22.564Z,37.40
2018-07-30T17:54:50.637Z,39.00
2018-07-30T17:57:18.708Z,38.20
2018-07-30T17:59:47.070Z,37.80
2018-07-30T18:02:14.616Z,37.90
2018-07-30T18:09:39.482Z,38.20
2018-07-30T18:12:07.278Z,38.60
2018-07-30T18:14:35.902Z,35.90
2018-07-30T18:17:04.563Z,37.30
2018-07-30T18:19:32.335Z,35.30
2018-07-30T18:24:27.416Z,36.10
2018-07-30T18:26:54.964Z,36.90
2018-07-30T18:29:22.564Z,37.60
2018-07-30T18:31:50.669Z,36.10
2018-07-30T18:34:18.234Z,37.80
2018-07-30T18:36:45.898Z,36.00
2018-07-30T18:39:13.484Z,38.50
2018-07-30T18:41:41.011Z,38.90
2018-07-30T18:44:08.564Z,41.00
2018-07-30T18:46:36.110Z,40.80
2018-07-30T18:49:03.887Z,40.10
2018-07-30T18:54:00.076Z,41.50
2018-07-30T18:56:27.865Z,41.70
2018-07-30T18:58:56.772Z,42.20
2018-07-30T19:03:51.848Z,41.60
2018-07-30T19:08:47.494Z,42.60
2018-07-30T19:11:15.316Z,42.30
2018-07-30T19:13:43.056Z,42.40
2018-07-30T19:16:11.477Z,42.40
2018-07-30T19:18:39.696Z,42.20
2018-07-30T19:21:07.732Z,43.10
2018-07-30T19:23:35.473Z,44.10
2018-07-30T19:26:04.711Z,42.50
2018-07-30T19:28:32.789Z,43.70
2018-07-30T19:31:00.348Z,44.10
2018-07-30T19:33:29.212Z,44.00
2018-07-30T19:35:56.997Z,44.00
2018-07-30T19:38:25.982Z,43.90
2018-07-30T19:40:53.701Z,43.90
2018-07-30T19:43:22.235Z,43.90
2018-07-30T19:48:18.285Z,44.10
2018-07-30T19:50:45.960Z,43.80
2018-07-30T19:53:15.538Z,43.90
2018-07-30T19:56:27.652Z,43.90
2018-07-30T19:58:59.573Z,43.90
2018-07-30T20:01:28.084Z,43.90
2018-07-30T20:03:55.827Z,43.90
2018-07-30T20:06:24.616Z,43.50
2018-07-30T20:08:53.783Z,42.90
2018-07-30T20:11:21.534Z,42.50
2018-07-30T20:13:49.268Z,42.80
2018-07-30T20:16:17.100Z,43.50
2018-07-30T20:18:46.172Z,43.20
2018-07-30T20:21:14.061Z,43.00
2018-07-30T20:23:42.075Z,42.90
2018-07-30T20:26:10.245Z,43.00
2018-07-30T20:28:40.049Z,43.60
2018-07-30T20:31:10.068Z,43.40
2018-07-30T20:33:38.189Z,44.00
2018-07-30T20:36:07.035Z,44.70
2018-07-30T20:38:34.643Z,44.20
2018-07-30T20:41:02.258Z,43.80
2018-07-30T20:43:29.966Z,45.20
2018-07-30T20:46:00.792Z,45.40
2018-07-30T20:49:28.712Z,46.10
2018-07-30T20:51:57.106Z,44.40
2018-07-30T20:54:24.870Z,45.10
2018-07-30T20:56:52.673Z,45.90
2018-07-30T20:59:20.667Z,45.40
2018-07-30T21:01:49.960Z,45.50
2018-07-30T21:04:19.567Z,45.00
2018-07-30T21:06:47.418Z,43.70
2018-07-30T21:09:15.284Z,43.20
2018-07-30T21:11:44.356Z,43.30
2018-07-30T21:16:42.098Z,43.40
2018-07-30T21:19:09.876Z,43.50
2018-07-30T21:24:06.507Z,43.40
2018-07-30T21:26:34.127Z,43.30
2018-07-30T21:29:01.854Z,43.30
2018-07-30T21:31:30.318Z,43.30
2018-07-30T21:34:01.047Z,43.30
2018-07-30T21:36:29.821Z,43.30
2018-07-30T21:38:59.653Z,43.30
2018-07-30T21:41:29.329Z,43.30
2018-07-30T21:45:12.056Z,43.30
2018-07-30T21:47:40.414Z,43.30
2018-07-30T21:50:08.052Z,43.20
2018-07-30T21:52:35.683Z,43.60
2018-07-30T21:55:04.255Z,43.20
2018-07-30T21:57:34.427Z,43.20
2018-07-30T22:00:02.075Z,43.20
2018-07-30T22:02:29.690Z,43.30
2018-07-30T22:07:24.880Z,43.70
2018-07-30T22:09:52.717Z,43.40
2018-07-30T22:17:17.847Z,43.20
2018-07-30T22:19:46.903Z,43.30
2018-07-30T22:22:15.487Z,43.50
2018-07-30T22:24:43.208Z,43.60
2018-07-30T22:27:11.682Z,43.70
2018-07-30T22:29:39.345Z,44.00
2018-07-30T22:32:08.408Z,44.20
2018-07-30T22:34:37.146Z,44.60
2018-07-30T22:37:06.259Z,44.80
2018-07-30T22:39:35.550Z,45.40
2018-07-30T22:42:03.461Z,45.30
2018-07-30T22:44:31.778Z,46.30
2018-07-30T22:47:03.850Z,46.70
2018-07-30T22:49:31.644Z,46.70
2018-07-30T22:52:00.518Z,47.40
2018-07-30T22:54:28.290Z,46.70
2018-07-30T22:56:56.458Z,47.00
2018-07-30T22:59:24.078Z,47.50
2018-07-30T23:01:53.160Z,47.50
2018-07-30T23:06:49.237Z,46.80
2018-07-30T23:46:30.781Z,47.90
2018-07-30T23:48:59.434Z,48.20
2018-07-30T23:51:28.220Z,47.50
2018-07-30T23:53:57.974Z,47.50
2018-07-30T23:56:27.468Z,47.70
2018-07-30T23:58:57.488Z,48.80
